createdAt,value
2022-12-26T00:01:18.815Z,100449.53
2022-12-26T00:03:45.216Z,100448.06
2022-12-26T00:06:15.180Z,100448.06
2022-12-26T00:08:42.038Z,100445.84
2022-12-26T00:11:08.378Z,100433.59
2022-12-26T00:13:38.471Z,100430.72
2022-12-26T00:16:08.120Z,100413.38
2022-12-26T00:18:37.691Z,100416.25
2022-12-26T00:21:04.062Z,100414.03
2022-12-26T00:23:31.572Z,100409.00
2022-12-26T00:26:04.630Z,100411.88
2022-12-26T00:28:30.980Z,100420.50
2022-12-26T00:30:57.316Z,100414.75
2022-12-26T00:33:23.644Z,100417.56
2022-12-26T00:35:49.983Z,100418.97
2022-12-26T00:38:16.499Z,100410.34
2022-12-26T00:40:44.893Z,100407.38
2022-12-26T00:43:11.236Z,100400.94
2022-12-26T00:45:37.567Z,100389.34
2022-12-26T00:48:03.901Z,100397.97
2022-12-26T00:50:34.547Z,100395.09
2022-12-26T00:53:01.438Z,100403.00
2022-12-26T00:55:29.319Z,100392.91
2022-12-26T00:57:55.642Z,100387.16
2022-12-26T01:00:21.964Z,100388.63
2022-12-26T01:02:48.482Z,100381.41
2022-12-26T01:05:14.908Z,100374.16
2022-12-26T01:08:21.682Z,100377.81
2022-12-26T01:10:27.811Z,100389.31
2022-12-26T01:12:54.139Z,100371.97
2022-12-26T01:15:20.458Z,100359.69
2022-12-26T01:17:46.777Z,100371.22
2022-12-26T01:20:14.128Z,100356.81
2022-12-26T01:22:40.450Z,100374.75
2022-12-26T01:25:07.201Z,100387.00
2022-12-26T01:27:33.524Z,100380.50
2022-12-26T01:29:59.856Z,100397.78
2022-12-26T01:32:26.204Z,100386.34
2022-12-26T01:34:55.276Z,100378.53
2022-12-26T01:37:23.377Z,100367.69
2022-12-26T01:39:49.708Z,100359.88
2022-12-26T01:42:16.737Z,100369.91
2022-12-26T01:44:54.672Z,100365.47
2022-12-26T01:47:21.005Z,100363.25
2022-12-26T01:49:47.860Z,100375.41
2022-12-26T01:52:18.039Z,100367.44
2022-12-26T01:54:45.579Z,100366.72
2022-12-26T01:57:21.879Z,100363.09
2022-12-26T01:59:48.199Z,100368.13
2022-12-26T02:02:14.592Z,100368.13
2022-12-26T02:05:02.951Z,100363.75
2022-12-26T02:07:29.282Z,100365.16
2022-12-26T02:09:55.649Z,100373.78
2022-12-26T02:12:35.627Z,100370.91
2022-12-26T02:15:04.851Z,100375.16
2022-12-26T02:17:31.201Z,100368.69
2022-12-26T02:20:16.125Z,100355.00
2022-12-26T02:22:55.295Z,100355.00
2022-12-26T02:25:50.964Z,100367.97
2022-12-26T02:28:25.311Z,100360.75
2022-12-26T02:30:54.590Z,100357.09
2022-12-26T02:33:30.116Z,100351.34
2022-12-26T02:35:56.375Z,100347.75
2022-12-26T02:38:29.076Z,100353.50
2022-12-26T02:41:01.515Z,100343.41
2022-12-26T02:43:34.375Z,100339.78
2022-12-26T02:46:28.416Z,100344.78
2022-12-26T02:48:55.949Z,100356.28
2022-12-26T02:51:50.126Z,100344.78
2022-12-26T02:54:37.701Z,100349.06
2022-12-26T02:57:23.438Z,100356.28
2022-12-26T03:00:28.592Z,100349.06
2022-12-26T03:03:30.296Z,100366.31
2022-12-26T03:06:16.853Z,100359.16
2022-12-26T03:09:03.554Z,100355.47
2022-12-26T03:11:49.337Z,100361.22
2022-12-26T03:18:15.134Z,100351.88
2022-12-26T03:20:41.532Z,100348.25
2022-12-26T03:23:08.800Z,100356.88
2022-12-26T03:25:53.990Z,100364.75
2022-12-26T03:28:20.526Z,100367.63
2022-12-26T03:30:49.598Z,100369.78
2022-12-26T03:49:27.938Z,100367.13
2022-12-26T03:52:28.383Z,100366.50
2022-12-26T03:55:17.778Z,100369.41
2022-12-26T03:58:06.613Z,100378.03
2022-12-26T04:00:51.528Z,100363.66
2022-12-26T04:03:36.712Z,100362.28
2022-12-26T04:06:22.694Z,100377.41
2022-12-26T04:09:13.373Z,100409.75
2022-12-26T04:11:58.564Z,100401.13
2022-12-26T04:14:46.583Z,100382.41
2022-12-26T04:17:50.596Z,100383.16
2022-12-26T04:20:22.329Z,100376.66
2022-12-26T04:23:24.095Z,100376.00
2022-12-26T04:26:11.496Z,100391.13
2022-12-26T04:28:56.265Z,100402.72
2022-12-26T04:31:45.663Z,100393.31
2022-12-26T04:34:41.062Z,100384.78
2022-12-26T04:37:26.686Z,100385.53
2022-12-26T04:40:12.383Z,100387.00
2022-12-26T04:42:57.203Z,100397.03
2022-12-26T04:45:23.579Z,100385.53
2022-12-26T04:48:08.896Z,100394.91
2022-12-26T04:50:35.239Z,100401.28
2022-12-26T04:53:01.675Z,100392.66
2022-12-26T04:55:28.690Z,100399.06
2022-12-26T04:57:55.026Z,100389.78
2022-12-26T05:00:21.849Z,100395.53
2022-12-26T05:03:06.845Z,100404.19
2022-12-26T05:05:53.163Z,100399.06
2022-12-26T05:09:00.650Z,100405.59
2022-12-26T05:11:27.361Z,100415.59
2022-12-26T05:13:53.859Z,100408.38
2022-12-26T05:16:39.154Z,100406.97
2022-12-26T05:19:24.333Z,100417.00
2022-12-26T05:22:09.686Z,100419.88
2022-12-26T05:24:56.424Z,100424.13
2022-12-26T05:27:41.275Z,100429.88
2022-12-26T05:30:07.905Z,100422.69
2022-12-26T05:32:53.028Z,100422.69
2022-12-26T05:35:19.348Z,100426.94
2022-12-26T05:37:46.913Z,100432.69
2022-12-26T05:40:13.259Z,100431.94
2022-12-26T05:42:39.638Z,100444.19
2022-12-26T05:45:06.265Z,100439.94
2022-12-26T05:47:32.591Z,100435.63
2022-12-26T05:49:58.931Z,100437.13
2022-12-26T05:52:25.244Z,100434.34
2022-12-26T05:54:51.595Z,100440.09
2022-12-26T05:57:17.915Z,100434.41
2022-12-26T05:59:44.253Z,100428.66
2022-12-26T06:02:10.758Z,100431.53
2022-12-26T06:04:37.147Z,100430.13
2022-12-26T06:07:03.469Z,100441.63
2022-12-26T06:09:29.848Z,100451.72
2022-12-26T06:11:56.184Z,100428.00
2022-12-26T06:14:22.964Z,100427.25
2022-12-26T06:16:49.360Z,100432.28
2022-12-26T06:19:15.716Z,100425.78
2022-12-26T06:21:42.067Z,100430.78
2022-12-26T06:24:08.408Z,100425.78
2022-12-26T06:26:34.747Z,100431.53
2022-12-26T06:29:01.081Z,100435.88
2022-12-26T06:31:27.514Z,100441.56
2022-12-26T06:33:58.120Z,100447.31
2022-12-26T06:36:24.837Z,100458.81
2022-12-26T06:38:51.213Z,100471.72
2022-12-26T06:41:17.876Z,100475.34
2022-12-26T06:43:44.256Z,100484.63
2022-12-26T06:46:12.031Z,100487.50
2022-12-26T06:48:39.612Z,100488.91
2022-12-26T06:51:06.620Z,100498.16
2022-12-26T06:53:32.963Z,100498.91
2022-12-26T06:56:05.110Z,100491.78
2022-12-26T06:58:31.487Z,100498.16
2022-12-26T07:01:03.722Z,100495.94
2022-12-26T07:03:30.131Z,100491.69
2022-12-26T07:05:56.459Z,100501.69
2022-12-26T07:08:22.775Z,100505.97
2022-12-26T07:10:49.140Z,100504.50
2022-12-26T07:13:15.487Z,100506.63
2022-12-26T07:15:41.810Z,100514.53
2022-12-26T07:18:08.190Z,100514.44
2022-12-26T07:20:34.562Z,100517.31
2022-12-26T07:23:00.918Z,100517.31
2022-12-26T07:25:27.248Z,100514.44
2022-12-26T07:27:53.849Z,100517.31
2022-12-26T07:30:20.184Z,100507.22
2022-12-26T07:32:46.515Z,100502.84
2022-12-26T07:35:12.842Z,100495.63
2022-12-26T07:37:39.153Z,100492.75
2022-12-26T07:40:05.688Z,100495.63
2022-12-26T07:42:32.066Z,100498.50
2022-12-26T07:44:58.388Z,100510.66
2022-12-26T07:47:24.724Z,100512.78
2022-12-26T07:49:52.471Z,100527.91
2022-12-26T07:52:19.853Z,100532.91
2022-12-26T07:54:46.207Z,100528.63
2022-12-26T07:57:46.702Z,100548.72
2022-12-26T07:59:59.014Z,100534.31
2022-12-26T08:02:25.585Z,100537.19
2022-12-26T08:04:52.063Z,100534.31
2022-12-26T08:07:18.404Z,100528.50
2022-12-26T08:09:45.142Z,100526.34
2022-12-26T08:12:11.539Z,100522.75
2022-12-26T08:14:38.010Z,100529.97
2022-12-26T08:17:04.424Z,100521.25
2022-12-26T08:19:30.768Z,100519.78
2022-12-26T08:22:22.606Z,100520.50
2022-12-26T08:24:48.968Z,100525.53
2022-12-26T08:27:16.002Z,100531.28
2022-12-26T08:29:42.344Z,100531.28
2022-12-26T08:32:08.684Z,100535.63
2022-12-26T08:34:35.069Z,100534.25
2022-12-26T08:37:01.490Z,100538.59
2022-12-26T08:39:27.835Z,100537.19
2022-12-26T08:41:54.219Z,100543.00
2022-12-26T08:44:28.718Z,100534.38
2022-12-26T08:46:55.476Z,100528.97
2022-12-26T08:49:21.820Z,100538.16
2022-12-26T08:51:48.197Z,100543.97
2022-12-26T08:54:14.534Z,100539.78
2022-12-26T08:56:40.928Z,100537.09
2022-12-26T08:59:07.606Z,100536.53
2022-12-26T09:01:34.125Z,100545.56
2022-12-26T09:04:01.947Z,100556.88
2022-12-26T09:06:28.294Z,100566.72
2022-12-26T09:08:54.652Z,100574.34
2022-12-26T09:11:22.130Z,100575.59
2022-12-26T09:13:48.619Z,100578.84
2022-12-26T09:16:15.702Z,100573.25
2022-12-26T09:18:42.345Z,100583.47
2022-12-26T09:21:08.996Z,100585.22
2022-12-26T09:23:35.394Z,100598.66
2022-12-26T09:26:14.873Z,100585.88
2022-12-26T09:28:41.369Z,100597.28
2022-12-26T09:31:08.411Z,100595.69
2022-12-26T09:33:37.555Z,100590.69
2022-12-26T09:36:08.283Z,100587.91
2022-12-26T09:38:37.409Z,100579.22
2022-12-26T09:41:18.955Z,100582.91
2022-12-26T09:44:03.448Z,100585.16
2022-12-26T09:46:35.013Z,100581.44
2022-12-26T09:49:12.362Z,100579.00
2022-12-26T09:51:39.649Z,100572.63
2022-12-26T09:54:06.153Z,100580.66
2022-12-26T09:59:20.776Z,100587.91
2022-12-26T10:01:49.112Z,100580.19
2022-12-26T10:04:28.539Z,100589.72
2022-12-26T10:07:05.592Z,100601.22
2022-12-26T10:09:36.432Z,100607.06
2022-12-26T10:12:30.568Z,100609.94
2022-12-26T10:14:57.528Z,100620.13
2022-12-26T10:17:42.692Z,100631.53
2022-12-26T10:20:19.903Z,100625.88
2022-12-26T10:23:00.335Z,100617.34
2022-12-26T10:25:38.979Z,100612.34
2022-12-26T10:28:18.788Z,100612.34
2022-12-26T10:30:45.154Z,100610.28
2022-12-26T10:33:17.576Z,100619.19
2022-12-26T10:35:44.169Z,100607.59
2022-12-26T10:38:27.458Z,100610.38
2022-12-26T10:40:54.182Z,100594.72
2022-12-26T10:43:20.443Z,100605.44
2022-12-26T10:45:58.425Z,100596.81
2022-12-26T10:48:25.265Z,100605.53
2022-12-26T10:50:51.589Z,100606.28
2022-12-26T10:53:17.938Z,100607.69
2022-12-26T10:55:44.283Z,100603.41
2022-12-26T10:58:26.210Z,100607.69
2022-12-26T11:00:53.297Z,100608.41
2022-12-26T11:03:20.175Z,100608.59
2022-12-26T11:08:43.079Z,100617.84
2022-12-26T11:11:13.714Z,100607.13
2022-12-26T11:13:41.940Z,100617.31
2022-12-26T11:16:08.325Z,100614.34
2022-12-26T11:18:37.138Z,100620.19
2022-12-26T11:21:18.451Z,100606.34
2022-12-26T11:23:45.113Z,100607.94
2022-12-26T11:26:22.117Z,100604.31
2022-12-26T11:28:48.470Z,100591.44
2022-12-26T11:31:26.620Z,100588.63
2022-12-26T11:33:53.011Z,100586.41
2022-12-26T11:36:20.681Z,100595.13
2022-12-26T11:38:51.297Z,100608.19
2022-12-26T11:41:32.440Z,100603.94
2022-12-26T11:44:11.337Z,100604.47
2022-12-26T11:46:40.531Z,100602.34
2022-12-26T11:49:06.985Z,100603.94
2022-12-26T11:51:34.057Z,100607.53
2022-12-26T11:54:13.526Z,100601.88
2022-12-26T11:56:39.900Z,100614.19
2022-12-26T11:59:20.996Z,100609.84
2022-12-26T12:01:47.436Z,100608.38
2022-12-26T12:04:13.840Z,100609.91
2022-12-26T12:06:40.135Z,100604.84
2022-12-26T12:09:06.462Z,100595.47
2022-12-26T12:11:35.733Z,100608.28
2022-12-26T12:14:08.433Z,100602.69
2022-12-26T12:16:53.671Z,100582.38
2022-12-26T12:19:24.337Z,100594.34
2022-12-26T12:21:56.454Z,100588.88
2022-12-26T12:24:32.611Z,100593.56
2022-12-26T12:27:08.159Z,100582.16
2022-12-26T12:29:37.391Z,100576.56
2022-12-26T12:32:13.953Z,100569.41
2022-12-26T12:34:48.714Z,100580.91
2022-12-26T12:37:31.617Z,100577.38
2022-12-26T12:39:57.891Z,100573.84
2022-12-26T12:42:31.421Z,100576.81
2022-12-26T12:45:03.017Z,100582.56
2022-12-26T12:47:35.288Z,100577.16
2022-12-26T12:50:21.860Z,100582.91
2022-12-26T12:52:54.383Z,100580.69
2022-12-26T12:55:36.691Z,100584.88
2022-12-26T12:58:05.817Z,100583.47
2022-12-26T13:00:38.479Z,100579.19
2022-12-26T13:03:12.960Z,100574.19
2022-12-26T13:05:44.483Z,100587.03
2022-12-26T13:08:15.722Z,100589.75
2022-12-26T13:10:49.947Z,100587.22
2022-12-26T13:13:20.183Z,100578.06
2022-12-26T13:15:47.623Z,100594.84
2022-12-26T13:18:17.945Z,100587.47
2022-12-26T13:20:44.923Z,100578.75
2022-12-26T13:23:32.369Z,100582.09
2022-12-26T13:26:06.032Z,100592.88
2022-12-26T13:28:33.826Z,100586.06
2022-12-26T13:31:00.156Z,100574.69
2022-12-26T13:33:27.220Z,100579.28
2022-12-26T13:36:01.629Z,100578.41
2022-12-26T13:38:54.101Z,100582.44
2022-12-26T13:41:39.408Z,100581.94
2022-12-26T13:44:20.721Z,100580.75
2022-12-26T13:46:47.054Z,100580.75
2022-12-26T13:49:29.656Z,100595.16
2022-12-26T13:51:56.924Z,100590.31
2022-12-26T13:54:23.966Z,100589.56
2022-12-26T13:56:50.269Z,100596.47
2022-12-26T13:59:17.894Z,100595.28
2022-12-26T14:01:55.370Z,100594.13
2022-12-26T14:04:22.105Z,100601.53
2022-12-26T14:06:59.381Z,100589.81
2022-12-26T14:09:44.525Z,100600.88
2022-12-26T14:12:10.808Z,100605.75
2022-12-26T14:14:39.859Z,100607.09
2022-12-26T14:17:24.959Z,100599.84
2022-12-26T14:20:01.458Z,100602.72
2022-12-26T14:22:30.967Z,100614.91
2022-12-26T14:25:00.362Z,100611.94
2022-12-26T14:27:31.716Z,100624.13
2022-12-26T14:30:01.554Z,100627.50
2022-12-26T14:32:38.277Z,100616.06
2022-12-26T14:35:16.050Z,100620.34
2022-12-26T14:37:45.332Z,100614.31
2022-12-26T14:40:11.583Z,100621.50
2022-12-26T14:43:12.007Z,100624.03
2022-12-26T14:45:45.455Z,100616.38
2022-12-26T14:48:14.704Z,100619.50
2022-12-26T14:50:44.964Z,100622.19
2022-12-26T14:53:17.139Z,100625.28
2022-12-26T14:55:50.343Z,100617.72
2022-12-26T14:58:31.973Z,100624.44
2022-12-26T15:01:10.822Z,100617.88
2022-12-26T15:03:49.037Z,100623.00
2022-12-26T15:06:21.175Z,100629.22
2022-12-26T15:08:54.617Z,100621.41
2022-12-26T15:15:18.475Z,100609.91
2022-12-26T15:17:47.787Z,100612.69
2022-12-26T15:20:22.943Z,100615.47
2022-12-26T15:22:58.223Z,100607.59
2022-12-26T15:25:43.459Z,100611.22
2022-12-26T15:28:28.508Z,100595.34
2022-12-26T15:31:13.734Z,100591.00
2022-12-26T15:33:40.338Z,100591.00
2022-12-26T15:36:12.050Z,100598.22
2022-12-26T15:38:43.979Z,100603.25
2022-12-26T15:41:14.138Z,100610.41
2022-12-26T15:43:44.800Z,100609.00
2022-12-26T15:46:16.622Z,100599.53
2022-12-26T15:49:02.636Z,100602.41
2022-12-26T15:51:40.317Z,100601.03
2022-12-26T15:54:12.431Z,100609.59
2022-12-26T15:56:44.760Z,100612.47
2022-12-26T15:59:29.091Z,100602.34
2022-12-26T16:01:55.540Z,100593.63
2022-12-26T16:04:24.245Z,100611.63
2022-12-26T16:06:56.088Z,100605.88
2022-12-26T16:09:35.336Z,100608.69
2022-12-26T16:12:01.758Z,100602.91
2022-12-26T16:14:28.086Z,100610.72
2022-12-26T16:16:54.423Z,100612.84
2022-12-26T16:19:22.688Z,100620.75
2022-12-26T16:22:09.039Z,100614.25
2022-12-26T16:24:35.554Z,100623.53
2022-12-26T16:27:02.518Z,100622.06
2022-12-26T16:29:28.852Z,100614.81
2022-12-26T16:32:01.520Z,100614.81
2022-12-26T16:34:27.858Z,100614.81
2022-12-26T16:36:54.197Z,100620.56
2022-12-26T16:39:21.447Z,100613.34
2022-12-26T16:42:04.943Z,100621.97
2022-12-26T16:44:34.171Z,100632.06
2022-12-26T16:47:03.998Z,100629.19
2022-12-26T16:49:30.876Z,100645.09
2022-12-26T16:51:57.208Z,100649.44
2022-12-26T16:54:42.405Z,100658.06
2022-12-26T16:57:17.954Z,100655.19
2022-12-26T16:59:48.833Z,100663.06
2022-12-26T17:02:16.552Z,100655.19
2022-12-26T17:04:43.035Z,100670.97
2022-12-26T17:07:10.012Z,100655.09
2022-12-26T17:09:41.402Z,100669.47
2022-12-26T17:12:08.188Z,100680.97
2022-12-26T17:14:36.156Z,100676.63
2022-12-26T17:17:03.515Z,100682.38
2022-12-26T17:19:31.657Z,100689.53
2022-12-26T17:22:19.898Z,100686.66
2022-12-26T17:24:46.688Z,100685.16
2022-12-26T17:27:20.024Z,100695.28
2022-12-26T17:29:50.657Z,100692.41
2022-12-26T17:32:27.505Z,100708.16
2022-12-26T17:34:53.833Z,100707.34
2022-12-26T17:37:21.855Z,100712.41
2022-12-26T17:40:11.475Z,100710.94
2022-12-26T17:42:39.914Z,100703.72
2022-12-26T17:45:06.357Z,100715.97
2022-12-26T17:47:32.698Z,100713.81
2022-12-26T17:49:59.055Z,100705.84
2022-12-26T17:52:26.032Z,100711.59
2022-12-26T17:54:52.504Z,100706.59
2022-12-26T17:57:19.972Z,100720.97
2022-12-26T17:59:46.355Z,100725.72
2022-12-26T18:02:12.836Z,100711.16
2022-12-26T18:04:39.251Z,100728.50
2022-12-26T18:07:05.574Z,100739.53
2022-12-26T18:09:31.906Z,100747.97
2022-12-26T18:11:58.264Z,100753.28
2022-12-26T18:14:33.361Z,100752.91
2022-12-26T18:16:59.710Z,100756.47
2022-12-26T18:19:26.043Z,100756.75
2022-12-26T18:21:52.415Z,100761.13
2022-12-26T18:24:18.751Z,100748.47
2022-12-26T18:26:45.076Z,100741.59
2022-12-26T18:29:11.467Z,100748.56
2022-12-26T18:31:39.442Z,100746.19
2022-12-26T18:34:05.922Z,100752.91
2022-12-26T18:36:33.982Z,100758.66
2022-12-26T18:39:00.337Z,100757.28
2022-12-26T18:41:26.673Z,100765.91
2022-12-26T18:43:53.025Z,100780.28
2022-12-26T18:46:20.047Z,100786.78
2022-12-26T18:48:46.466Z,100783.16
2022-12-26T18:51:16.274Z,100788.91
2022-12-26T18:53:42.683Z,100794.69
2022-12-26T18:56:12.211Z,100783.81
2022-12-26T18:58:38.539Z,100787.41
2022-12-26T19:01:08.672Z,100783.06
2022-12-26T19:03:35.387Z,100803.22
2022-12-26T19:06:01.752Z,100802.47
2022-12-26T19:08:28.084Z,100805.97
2022-12-26T19:10:54.419Z,100813.88
2022-12-26T19:13:20.738Z,100824.59
2022-12-26T19:15:47.128Z,100821.66
2022-12-26T19:18:13.459Z,100828.78
2022-12-26T19:20:44.130Z,100836.69
2022-12-26T19:23:10.808Z,100830.28
2022-12-26T19:25:37.157Z,100839.56
2022-12-26T19:28:06.682Z,100841.72
2022-12-26T19:30:38.558Z,100838.81
2022-12-26T19:33:05.669Z,100846.78
2022-12-26T19:35:32.024Z,100853.31
2022-12-26T19:37:58.391Z,100861.66
2022-12-26T19:40:25.302Z,100862.22
2022-12-26T19:42:51.878Z,100860.94
2022-12-26T19:45:20.829Z,100856.75
2022-12-26T19:47:47.262Z,100867.63
2022-12-26T19:50:13.794Z,100878.38
2022-12-26T19:52:41.190Z,100891.38
2022-12-26T19:55:07.826Z,100895.63
2022-12-26T19:57:34.158Z,100911.41
2022-12-26T20:00:00.648Z,100904.94
2022-12-26T20:02:30.288Z,100905.66
2022-12-26T20:04:56.883Z,100907.81
2022-12-26T20:07:23.255Z,100919.22
2022-12-26T20:09:49.599Z,100921.47
2022-12-26T20:12:15.956Z,100921.47
2022-12-26T20:14:42.288Z,100927.22
2022-12-26T20:17:11.881Z,100931.56
2022-12-26T20:19:38.332Z,100941.66
2022-12-26T20:22:04.748Z,100935.91
2022-12-26T20:24:31.123Z,100935.16
2022-12-26T20:26:57.506Z,100945.31
2022-12-26T20:29:23.845Z,100936.69
2022-12-26T20:31:50.189Z,100940.94
2022-12-26T20:34:19.639Z,100937.31
2022-12-26T20:36:45.968Z,100950.97
2022-12-26T20:39:13.362Z,100952.44
2022-12-26T20:41:39.700Z,100957.56
2022-12-26T20:44:06.090Z,100965.44
2022-12-26T20:46:32.879Z,100967.66
2022-12-26T20:48:59.531Z,100971.94
2022-12-26T20:51:29.044Z,100974.19
2022-12-26T20:53:59.489Z,100986.31
2022-12-26T20:56:25.838Z,100977.78
2022-12-26T20:58:52.172Z,100983.44
2022-12-26T21:01:19.577Z,100988.47
2022-12-26T21:03:46.045Z,100987.69
2022-12-26T21:06:13.110Z,100994.97
2022-12-26T21:08:39.778Z,101007.94
2022-12-26T21:11:06.887Z,100996.44
2022-12-26T21:13:33.233Z,101007.94
2022-12-26T21:16:09.531Z,101007.94
2022-12-26T21:18:36.372Z,101012.97
2022-12-26T21:21:09.107Z,101015.19
2022-12-26T21:23:35.684Z,101015.31
2022-12-26T21:26:02.022Z,101019.56
2022-12-26T21:28:28.356Z,101028.19
2022-12-26T21:30:54.733Z,101032.47
2022-12-26T21:33:21.266Z,101040.38
2022-12-26T21:35:50.993Z,101049.00
2022-12-26T21:38:17.673Z,101055.50
2022-12-26T21:40:44.082Z,101053.97
2022-12-26T21:43:10.394Z,101065.50
2022-12-26T21:45:38.201Z,101064.75
2022-12-26T21:48:04.543Z,101069.03
2022-12-26T21:50:30.883Z,101069.78
2022-12-26T21:52:57.222Z,101077.56
2022-12-26T21:55:29.823Z,101082.59
2022-12-26T21:57:56.765Z,101079.59
2022-12-26T22:00:23.153Z,101075.97
2022-12-26T22:03:08.056Z,101081.66
2022-12-26T22:05:38.198Z,101083.03
2022-12-26T22:08:04.733Z,101079.41
2022-12-26T22:10:55.351Z,101084.41
2022-12-26T22:13:22.136Z,101095.16
2022-12-26T22:16:04.481Z,101104.44
2022-12-26T22:18:39.105Z,101110.19
2022-12-26T22:21:15.610Z,101112.22
2022-12-26T22:23:42.206Z,101117.97
2022-12-26T22:26:08.888Z,101132.34
2022-12-26T22:28:35.236Z,101117.09
2022-12-26T22:31:01.664Z,101125.72
2022-12-26T22:33:29.107Z,101144.38
2022-12-26T22:35:58.433Z,101150.88
2022-12-26T22:38:24.768Z,101158.03
2022-12-26T22:40:54.858Z,101153.66
2022-12-26T22:43:21.228Z,101166.56
2022-12-26T22:45:50.302Z,101176.56
2022-12-26T22:48:16.755Z,101167.84
2022-12-26T22:50:46.716Z,101170.63
2022-12-26T22:53:13.055Z,101170.63
2022-12-26T22:55:49.068Z,101163.38
2022-12-26T22:58:15.583Z,101183.50
2022-12-26T23:00:41.928Z,101185.63
2022-12-26T23:03:08.410Z,101190.66
2022-12-26T23:05:35.014Z,101192.03
2022-12-26T23:08:01.361Z,101197.03
2022-12-26T23:10:27.722Z,101184.69
2022-12-26T23:12:54.180Z,101190.44
2022-12-26T23:15:21.545Z,101192.56
2022-12-26T23:18:09.604Z,101197.59
2022-12-26T23:20:54.856Z,101200.47
2022-12-26T23:23:21.499Z,101191.72
2022-12-26T23:25:47.841Z,101193.94
2022-12-26T23:28:32.796Z,101195.44
2022-12-26T23:30:59.153Z,101191.16
2022-12-26T23:33:25.501Z,101200.66
2022-12-26T23:35:51.839Z,101200.66
2022-12-26T23:38:18.171Z,101190.66
2022-12-26T23:40:44.748Z,101204.38
2022-12-26T23:43:12.280Z,101200.13
2022-12-26T23:45:41.689Z,101200.88
2022-12-26T23:48:08.065Z,101213.09
2022-12-26T23:50:34.399Z,101212.38
2022-12-26T23:53:00.739Z,101214.63
2022-12-26T23:55:27.092Z,101215.25
2022-12-26T23:57:55.169Z,101218.13
